Time;durP1;ratioP1;P1;durP2;ratioP2;P2;SDS_P1;SDS_P2;PMS_P1;PMS_P2;Temp;Humidity;BMP_temperature;BMP_pressure;BME280_temperature;BME280_humidity;BME280_pressure;Samples;Min_cycle;Max_cycle;Signal;HPM_P1;HPM_P2
2022/01/13 00:02:07;;;;;;;42.03;20.02;;;4.50;99.90;;;;;;5010492;28;20034;-51
2022/01/13 00:04:33;;;;;;;43.38;19.45;;;4.60;99.90;;;;;;5010728;28;20026;-53
2022/01/13 00:06:58;;;;;;;42.35;18.95;;;4.50;99.90;;;;;;5010762;28;20136;-50
2022/01/13 00:09:24;;;;;;;49.88;19.60;;;4.60;99.90;;;;;;5010822;28;20080;-50
2022/01/13 00:11:51;;;;;;;40.70;19.77;;;4.60;99.90;;;;;;5010812;28;20038;-51
2022/01/13 00:22:01;;;;;;;44.45;19.40;;;4.60;99.90;;;;;;5011437;28;20033;-50
2022/01/13 00:24:27;;;;;;;48.13;19.20;;;4.50;99.90;;;;;;4993369;28;20033;-51
2022/01/13 00:26:54;;;;;;;59.28;20.65;;;4.60;99.90;;;;;;5010833;28;20032;-50
2022/01/13 00:29:26;;;;;;;50.42;20.77;;;4.60;99.90;;;;;;5007761;28;20320;-51
2022/01/13 00:31:52;;;;;;;45.53;19.23;;;4.50;99.90;;;;;;5007458;28;20033;-51
2022/01/13 00:34:18;;;;;;;47.55;19.25;;;4.50;99.90;;;;;;5009145;28;20040;-53
2022/01/13 00:36:43;;;;;;;44.85;18.17;;;4.60;99.90;;;;;;5010322;28;20074;-51
2022/01/13 00:39:11;;;;;;;46.70;19.20;;;4.60;99.90;;;;;;5010616;28;20034;-50
2022/01/13 00:41:37;;;;;;;43.35;18.80;;;4.60;99.90;;;;;;5010640;28;20030;-51
2022/01/13 00:44:05;;;;;;;48.58;17.65;;;4.60;99.90;;;;;;5010662;28;20029;-51
2022/01/13 00:46:41;;;;;;;43.30;17.75;;;4.60;99.90;;;;;;5010560;28;20473;-51
2022/01/13 00:49:07;;;;;;;43.95;18.80;;;4.60;99.90;;;;;;5010312;28;20061;-50
2022/01/13 00:51:33;;;;;;;39.45;17.77;;;4.60;99.90;;;;;;5010333;28;20492;-53
2022/01/13 00:54:04;;;;;;;41.95;18.15;;;4.60;99.90;;;;;;5009530;28;20029;-50
2022/01/13 00:56:31;;;;;;;39.85;17.73;;;4.70;99.90;;;;;;5010662;28;20034;-52
2022/01/13 00:58:57;;;;;;;50.10;19.35;;;4.70;99.90;;;;;;5009726;28;20104;-51
2022/01/13 01:01:22;;;;;;;47.10;20.00;;;4.70;99.90;;;;;;5009987;28;20500;-51
2022/01/13 01:03:48;;;;;;;43.92;18.30;;;4.70;99.90;;;;;;5010756;28;20504;-50
2022/01/13 01:06:14;;;;;;;48.90;18.48;;;4.70;99.90;;;;;;5010561;28;20684;-50
2022/01/13 01:08:40;;;;;;;44.22;17.60;;;4.70;99.90;;;;;;5007232;28;20029;-53
2022/01/13 01:11:06;;;;;;;44.35;17.42;;;4.70;99.90;;;;;;5010048;28;20089;-50
2022/01/13 01:13:34;;;;;;;42.15;18.40;;;4.80;99.90;;;;;;5010156;28;20030;-50
2022/01/13 01:16:05;;;;;;;44.50;18.60;;;4.70;99.90;;;;;;5009341;28;20037;-51
2022/01/13 01:18:47;;;;;;;45.22;17.95;;;4.80;99.90;;;;;;5009397;28;20732;-50
2022/01/13 01:26:37;;;;;;;41.83;19.27;;;4.80;99.90;;;;;;5009521;28;20038;-52
2022/01/13 01:31:49;;;;;;;44.95;19.58;;;4.80;99.90;;;;;;5010196;28;20032;-52
2022/01/13 01:34:43;;;;;;;44.97;19.38;;;4.80;99.90;;;;;;5010134;28;20033;-53
2022/01/13 01:37:15;;;;;;;42.17;19.10;;;4.80;99.90;;;;;;4989781;28;20027;-53
2022/01/13 01:39:46;;;;;;;66.60;20.27;;;4.80;99.90;;;;;;5010441;28;20152;-51
2022/01/13 01:42:11;;;;;;;53.15;21.60;;;4.80;99.90;;;;;;5009289;28;20067;-49
2022/01/13 01:44:41;;;;;;;46.22;20.45;;;4.80;99.90;;;;;;5009590;28;20025;-51
2022/01/13 01:47:10;;;;;;;49.88;20.55;;;4.90;99.90;;;;;;5010093;28;20034;-51
2022/01/13 01:49:41;;;;;;;48.50;20.33;;;4.80;99.90;;;;;;5009553;28;20029;-53
2022/01/13 01:52:10;;;;;;;60.65;21.50;;;4.90;99.90;;;;;;5009570;28;20084;-51
2022/01/13 01:54:35;;;;;;;61.10;21.08;;;4.90;99.90;;;;;;5008980;28;20407;-51
2022/01/13 01:57:02;;;;;;;50.15;20.80;;;4.90;99.90;;;;;;5008456;28;20183;-50
2022/01/13 01:59:31;;;;;;;52.63;20.42;;;4.90;99.90;;;;;;5006024;28;20047;-53
2022/01/13 02:01:57;;;;;;;63.83;22.70;;;4.90;99.90;;;;;;5006749;28;20030;-50
2022/01/13 02:04:26;;;;;;;58.55;21.60;;;4.90;99.90;;;;;;5007774;28;20030;-50
2022/01/13 02:06:54;;;;;;;55.53;21.02;;;4.90;99.90;;;;;;5009335;28;20037;-50
2022/01/13 02:09:20;;;;;;;51.30;20.02;;;4.90;99.90;;;;;;5008954;28;20036;-52
2022/01/13 02:11:51;;;;;;;63.72;21.77;;;4.90;99.90;;;;;;5009031;28;20112;-50
2022/01/13 02:17:05;;;;;;;51.10;21.67;;;4.90;99.90;;;;;;5009351;28;20579;-52
2022/01/13 02:19:33;;;;;;;53.45;20.50;;;4.90;99.90;;;;;;5008479;28;20327;-53
2022/01/13 02:21:59;;;;;;;50.47;20.02;;;4.90;99.90;;;;;;5009414;28;20030;-52
2022/01/13 02:24:25;;;;;;;45.72;18.85;;;5.00;99.90;;;;;;5008869;28;20635;-52
2022/01/13 02:26:51;;;;;;;61.47;21.70;;;5.00;99.90;;;;;;5004776;28;20038;-52
2022/01/13 02:29:16;;;;;;;59.38;22.40;;;4.90;99.90;;;;;;5008445;28;20144;-53
2022/01/13 02:31:42;;;;;;;59.03;21.70;;;5.00;99.90;;;;;;5009492;28;20068;-52
2022/01/13 02:34:08;;;;;;;49.38;20.30;;;5.00;99.90;;;;;;5009222;28;20435;-51
2022/01/13 02:36:34;;;;;;;50.30;20.23;;;5.00;99.90;;;;;;5011368;28;20042;-54
2022/01/13 02:39:04;;;;;;;50.80;20.33;;;5.00;99.90;;;;;;5012393;28;20411;-50
2022/01/13 02:41:30;;;;;;;51.40;19.05;;;5.00;99.90;;;;;;5012592;28;20146;-50
2022/01/13 02:43:58;;;;;;;58.95;21.33;;;5.00;99.90;;;;;;5012766;28;20089;-52
2022/01/13 02:49:23;;;;;;;48.67;18.05;;;5.00;99.90;;;;;;4989074;28;20534;-54
2022/01/13 02:51:51;;;;;;;50.08;19.67;;;5.00;99.90;;;;;;5011855;28;20034;-53
2022/01/13 02:54:17;;;;;;;54.00;20.15;;;5.00;99.90;;;;;;5012766;28;20042;-54
2022/01/13 02:56:44;;;;;;;45.63;19.45;;;5.00;99.90;;;;;;5012412;28;20403;-51
2022/01/13 02:59:10;;;;;;;47.10;18.17;;;5.10;99.90;;;;;;5012014;28;20105;-52
2022/01/13 03:01:37;;;;;;;50.33;21.42;;;5.00;99.90;;;;;;5012061;28;20107;-54
2022/01/13 03:04:07;;;;;;;42.97;19.23;;;5.10;99.90;;;;;;5012686;28;20037;-53
2022/01/13 03:06:36;;;;;;;35.33;16.33;;;5.10;99.90;;;;;;5012383;28;20041;-52
2022/01/13 03:09:08;;;;;;;43.20;18.40;;;5.10;99.90;;;;;;5011923;28;20172;-51
2022/01/13 03:11:37;;;;;;;37.33;18.27;;;5.10;99.90;;;;;;5012503;28;20046;-51
2022/01/13 03:14:10;;;;;;;43.38;18.30;;;5.10;99.90;;;;;;5012465;28;20034;-52
2022/01/13 03:16:37;;;;;;;48.03;20.48;;;5.10;99.90;;;;;;5012063;28;20105;-53
2022/01/13 03:19:03;;;;;;;47.85;19.25;;;5.10;99.90;;;;;;4994325;28;20025;-49
2022/01/13 03:21:29;;;;;;;52.10;20.20;;;5.10;99.90;;;;;;5012524;28;20118;-50
2022/01/13 03:23:55;;;;;;;46.33;18.58;;;5.10;99.90;;;;;;5012110;28;20036;-50
2022/01/13 03:26:21;;;;;;;47.95;19.90;;;5.10;99.90;;;;;;5011783;28;20033;-49
2022/01/13 03:28:52;;;;;;;50.20;18.63;;;5.10;99.90;;;;;;5011335;28;20041;-52
2022/01/13 03:31:19;;;;;;;45.60;18.75;;;5.10;99.90;;;;;;5011275;28;20026;-52
2022/01/13 03:33:45;;;;;;;54.20;19.73;;;5.10;99.90;;;;;;5012081;28;20033;-51
2022/01/13 03:36:11;;;;;;;54.53;20.17;;;5.10;99.90;;;;;;5011601;28;20488;-52
2022/01/13 03:38:37;;;;;;;58.50;22.48;;;5.10;99.90;;;;;;5011519;28;20045;-51
2022/01/13 03:41:03;;;;;;;51.15;21.38;;;5.10;99.90;;;;;;5011732;28;20545;-50
2022/01/13 03:43:29;;;;;;;48.22;20.88;;;5.10;99.90;;;;;;5012183;28;20021;-51
2022/01/13 03:45:55;;;;;;;56.45;20.05;;;5.10;99.90;;;;;;5011834;28;20063;-53
2022/01/13 03:48:21;;;;;;;53.03;19.85;;;5.20;99.90;;;;;;5010783;28;20076;-53
2022/01/13 03:50:47;;;;;;;51.85;19.77;;;5.20;99.90;;;;;;5011943;28;20030;-52
2022/01/13 03:53:18;;;;;;;48.05;20.25;;;5.20;99.90;;;;;;5011603;28;20037;-52
2022/01/13 03:56:04;;;;;;;59.83;21.55;;;5.20;99.90;;;;;;5011465;28;20045;-49
2022/01/13 03:59:13;;;;;;;50.33;20.20;;;5.20;99.90;;;;;;5010377;28;20129;-52
2022/01/13 04:02:00;;;;;;;44.03;19.45;;;5.20;99.90;;;;;;5011137;28;20045;-53
2022/01/13 04:04:33;;;;;;;53.60;19.90;;;5.20;99.90;;;;;;4993611;28;20022;-51
2022/01/13 04:07:11;;;;;;;49.55;20.20;;;5.20;99.90;;;;;;5011697;28;20080;-51
2022/01/13 04:09:56;;;;;;;49.17;19.20;;;5.20;99.90;;;;;;5010666;28;20034;-52
2022/01/13 04:12:25;;;;;;;51.03;21.15;;;5.20;99.90;;;;;;5011386;28;20064;-51
2022/01/13 04:14:55;;;;;;;59.45;20.60;;;5.20;99.90;;;;;;5011124;28;20030;-53
2022/01/13 04:17:22;;;;;;;45.65;20.08;;;5.20;99.90;;;;;;5011207;28;20077;-51
2022/01/13 04:19:48;;;;;;;62.45;21.15;;;5.30;99.90;;;;;;5010413;28;20022;-53
2022/01/13 04:22:16;;;;;;;46.30;19.85;;;5.30;99.90;;;;;;5010807;28;20038;-51
2022/01/13 04:24:48;;;;;;;48.60;21.15;;;5.20;99.90;;;;;;5010485;28;20022;-52
2022/01/13 04:27:27;;;;;;;53.25;20.63;;;5.30;99.90;;;;;;5010185;28;20180;-51
2022/01/13 04:30:21;;;;;;;55.03;19.92;;;5.30;99.90;;;;;;5032998;23;20052;-55
2022/01/13 04:32:39;;;;;;;52.92;19.88;;;5.30;99.90;;;;;;5012350;28;20287;-51
2022/01/13 04:35:05;;;;;;;61.10;21.48;;;5.30;99.90;;;;;;5011069;28;20030;-50
2022/01/13 04:37:31;;;;;;;52.15;21.30;;;5.20;99.90;;;;;;5010492;28;20091;-59
2022/01/13 04:39:57;;;;;;;49.17;21.30;;;5.30;99.90;;;;;;5011053;28;20133;-55
2022/01/13 04:42:23;;;;;;;59.05;20.48;;;5.30;99.90;;;;;;4995533;28;20033;-53
2022/01/13 04:44:48;;;;;;;50.22;20.92;;;5.30;99.90;;;;;;4991733;28;20023;-50
2022/01/13 04:47:14;;;;;;;51.92;19.15;;;5.30;99.90;;;;;;4991343;28;20037;-54
2022/01/13 04:49:39;;;;;;;52.17;20.52;;;5.30;99.90;;;;;;4990926;28;20031;-54
2022/01/13 04:52:05;;;;;;;44.00;19.27;;;5.30;99.90;;;;;;4991034;28;20058;-52
2022/01/13 04:54:30;;;;;;;48.22;20.00;;;5.30;99.90;;;;;;4990761;28;20061;-53
2022/01/13 04:57:14;;;;;;;52.35;19.50;;;5.20;99.90;;;;;;5009469;28;20052;-51
2022/01/13 04:59:40;;;;;;;39.78;18.90;;;5.20;99.90;;;;;;5009219;28;20029;-55
2022/01/13 05:02:06;;;;;;;48.30;20.10;;;5.30;99.90;;;;;;4999147;28;20036;-55
2022/01/13 05:04:31;;;;;;;44.90;19.25;;;5.20;99.90;;;;;;4990807;28;20504;-52
2022/01/13 05:06:57;;;;;;;45.65;18.25;;;5.30;99.90;;;;;;4990896;28;20508;-52
2022/01/13 05:09:22;;;;;;;45.03;18.90;;;5.30;99.90;;;;;;4997457;28;20499;-54
2022/01/13 05:11:48;;;;;;;49.55;19.27;;;5.20;99.90;;;;;;4991039;28;20453;-57
2022/01/13 05:14:13;;;;;;;54.42;21.50;;;5.30;99.90;;;;;;4991256;28;20433;-49
2022/01/13 05:19:32;;;;;;;51.03;19.40;;;5.20;99.90;;;;;;5008710;28;20032;-52
2022/01/13 05:24:24;;;;;;;48.53;20.25;;;5.30;99.90;;;;;;5000111;28;20029;-54
2022/01/13 05:26:49;;;;;;;49.40;20.33;;;5.30;99.90;;;;;;4998594;28;20550;-52
2022/01/13 05:29:19;;;;;;;51.95;20.23;;;5.30;99.90;;;;;;5009516;28;20042;-54
2022/01/13 05:31:44;;;;;;;43.65;19.75;;;5.20;99.90;;;;;;5009858;28;20484;-57
2022/01/13 05:34:10;;;;;;;49.17;19.90;;;5.20;99.90;;;;;;5009741;28;20109;-49
2022/01/13 05:36:36;;;;;;;45.63;19.50;;;5.30;99.90;;;;;;5009660;28;20038;-50
2022/01/13 05:39:02;;;;;;;48.20;19.83;;;5.20;99.90;;;;;;5009417;28;20065;-50
2022/01/13 05:41:28;;;;;;;35.13;18.30;;;5.30;99.90;;;;;;5003709;28;20038;-54
2022/01/13 05:43:54;;;;;;;40.97;18.23;;;5.30;99.90;;;;;;4990529;28;20049;-50
2022/01/13 05:46:19;;;;;;;44.30;19.13;;;5.30;99.90;;;;;;5007502;28;20476;-53
2022/01/13 05:48:45;;;;;;;46.85;20.23;;;5.30;99.90;;;;;;5002837;28;20033;-56
2022/01/13 05:51:10;;;;;;;42.33;20.00;;;5.30;99.90;;;;;;4998056;28;20265;-54
2022/01/13 05:53:36;;;;;;;42.90;19.58;;;5.30;99.90;;;;;;5009349;28;20034;-57
2022/01/13 05:56:01;;;;;;;45.42;19.40;;;5.30;99.90;;;;;;4998466;28;20031;-57
2022/01/13 05:58:27;;;;;;;50.33;19.95;;;5.30;99.90;;;;;;5000516;28;20120;-55
2022/01/13 06:00:53;;;;;;;50.45;20.23;;;5.40;99.90;;;;;;5004521;28;20034;-57
2022/01/13 06:03:18;;;;;;;47.15;20.25;;;5.40;99.90;;;;;;4989781;28;20076;-56
2022/01/13 06:05:44;;;;;;;50.78;19.42;;;5.40;99.90;;;;;;4990127;28;20027;-57
2022/01/13 06:08:09;;;;;;;60.75;21.77;;;5.40;99.90;;;;;;4989554;28;20047;-55
2022/01/13 06:10:38;;;;;;;44.72;20.08;;;5.40;99.90;;;;;;5005304;28;20111;-55
2022/01/13 06:13:03;;;;;;;41.90;19.65;;;5.40;99.90;;;;;;4999277;28;20045;-58
2022/01/13 06:15:29;;;;;;;50.08;19.75;;;5.40;99.90;;;;;;4989891;28;20412;-56
2022/01/13 06:17:56;;;;;;;42.85;18.15;;;5.40;99.90;;;;;;5002712;28;20486;-56
2022/01/13 06:20:22;;;;;;;42.60;19.40;;;5.40;99.90;;;;;;4992913;28;20073;-58
2022/01/13 06:22:50;;;;;;;44.97;20.15;;;5.40;99.90;;;;;;4989836;28;20109;-59
2022/01/13 06:25:17;;;;;;;49.90;19.77;;;5.50;99.90;;;;;;4989983;28;20045;-56
2022/01/13 06:27:43;;;;;;;52.25;20.50;;;5.50;99.90;;;;;;5001119;28;20033;-55
2022/01/13 06:30:14;;;;;;;47.05;20.50;;;5.50;99.90;;;;;;5008947;28;20041;-58
2022/01/13 06:32:40;;;;;;;44.92;20.98;;;5.50;99.90;;;;;;5005575;28;20041;-54
2022/01/13 06:35:06;;;;;;;46.70;21.23;;;5.50;99.90;;;;;;4989936;28;20069;-57
2022/01/13 06:37:31;;;;;;;53.00;22.38;;;5.50;99.90;;;;;;4989598;28;20096;-54
2022/01/13 06:39:57;;;;;;;48.95;21.15;;;5.60;99.90;;;;;;4973920;28;20034;-57
2022/01/13 06:42:22;;;;;;;50.72;22.33;;;5.50;99.90;;;;;;5007636;28;20061;-57
2022/01/13 06:44:48;;;;;;;41.15;20.65;;;5.50;99.90;;;;;;4989978;28;20034;-55
2022/01/13 06:47:14;;;;;;;52.65;21.08;;;5.50;99.90;;;;;;4972149;28;20022;-58
2022/01/13 06:49:39;;;;;;;50.22;21.85;;;5.60;99.90;;;;;;4989300;28;20562;-55
2022/01/13 06:52:06;;;;;;;54.63;22.35;;;5.60;99.90;;;;;;4989813;28;20454;-57
2022/01/13 06:54:32;;;;;;;48.58;21.58;;;5.50;99.90;;;;;;4991987;28;20366;-55
2022/01/13 06:56:58;;;;;;;44.85;20.48;;;5.50;99.90;;;;;;5009128;28;20049;-59
2022/01/13 06:59:23;;;;;;;48.88;21.30;;;5.60;99.90;;;;;;5006710;28;20350;-58
2022/01/13 07:01:49;;;;;;;46.55;22.35;;;5.60;99.90;;;;;;5007294;28;20034;-58
2022/01/13 07:04:15;;;;;;;42.13;18.95;;;5.60;99.90;;;;;;5006271;28;20529;-56
2022/01/13 07:06:42;;;;;;;49.45;21.05;;;5.60;99.90;;;;;;4992067;28;20485;-60
2022/01/13 07:09:11;;;;;;;43.22;20.88;;;5.60;99.90;;;;;;4988878;28;20038;-59
2022/01/13 07:11:37;;;;;;;51.75;21.35;;;5.60;99.90;;;;;;4989665;28;20038;-57
2022/01/13 07:14:03;;;;;;;41.53;21.15;;;5.60;99.90;;;;;;4988690;28;20041;-57
2022/01/13 07:16:29;;;;;;;46.28;21.13;;;5.60;99.90;;;;;;4988529;28;20080;-58
2022/01/13 07:18:55;;;;;;;43.28;21.45;;;5.60;99.90;;;;;;4989409;28;20105;-58
2022/01/13 07:21:24;;;;;;;49.75;21.65;;;5.60;99.90;;;;;;4989122;28;20050;-59
2022/01/13 07:23:50;;;;;;;47.55;20.35;;;5.60;99.90;;;;;;4991451;28;20034;-57
2022/01/13 07:26:15;;;;;;;37.55;20.10;;;5.60;99.90;;;;;;4992098;28;20034;-57
2022/01/13 07:28:41;;;;;;;40.75;19.92;;;5.60;99.90;;;;;;4992257;28;20038;-54
2022/01/13 07:31:06;;;;;;;39.92;20.40;;;5.60;99.90;;;;;;4992885;28;20064;-58
2022/01/13 07:33:32;;;;;;;46.63;20.75;;;5.60;99.90;;;;;;5011385;28;20088;-58
2022/01/13 07:35:58;;;;;;;39.83;18.42;;;5.60;99.90;;;;;;5010870;28;20129;-55
2022/01/13 07:38:23;;;;;;;41.38;19.58;;;5.60;99.90;;;;;;5011145;28;20137;-57
2022/01/13 07:40:50;;;;;;;40.97;17.55;;;5.50;99.90;;;;;;5007611;28;20033;-58
2022/01/13 07:43:23;;;;;;;42.40;19.77;;;5.60;99.90;;;;;;4974965;28;20026;-56
2022/01/13 07:45:49;;;;;;;36.95;19.27;;;5.60;99.90;;;;;;4993814;28;20392;-59
2022/01/13 07:48:16;;;;;;;37.78;19.63;;;5.60;99.90;;;;;;5008139;28;20610;-58
2022/01/13 07:50:41;;;;;;;35.08;17.77;;;5.50;99.90;;;;;;5008082;28;20034;-58
2022/01/13 07:53:07;;;;;;;41.60;20.67;;;5.50;99.90;;;;;;4994453;28;20042;-59
2022/01/13 07:55:33;;;;;;;40.00;18.55;;;5.50;99.90;;;;;;5003834;28;20100;-55
2022/01/13 07:57:58;;;;;;;38.30;18.88;;;5.50;99.90;;;;;;4991644;28;20045;-58
2022/01/13 08:00:24;;;;;;;36.63;17.73;;;5.50;99.90;;;;;;4991714;28;20018;-56
2022/01/13 08:02:50;;;;;;;37.97;20.33;;;5.50;99.90;;;;;;4992373;28;20023;-57
2022/01/13 08:05:15;;;;;;;38.78;17.77;;;5.50;99.90;;;;;;4993524;28;20030;-59
2022/01/13 08:07:41;;;;;;;41.70;18.92;;;5.50;99.90;;;;;;5011234;28;20244;-58
2022/01/13 08:10:07;;;;;;;37.17;18.50;;;5.60;99.90;;;;;;5009986;28;20310;-57
2022/01/13 08:12:32;;;;;;;34.55;17.15;;;5.60;99.90;;;;;;5011739;28;20030;-59
2022/01/13 08:14:58;;;;;;;38.03;19.65;;;5.50;99.90;;;;;;5011357;28;20041;-56
2022/01/13 08:20:09;;;;;;;41.00;18.88;;;5.50;99.90;;;;;;5009839;28;20531;-58
2022/01/13 08:22:36;;;;;;;41.88;19.13;;;5.50;99.90;;;;;;5011569;28;20030;-55
2022/01/13 08:25:02;;;;;;;47.92;18.70;;;5.50;99.90;;;;;;5006206;28;20032;-54
2022/01/13 08:27:27;;;;;;;36.20;19.58;;;5.50;99.90;;;;;;5002824;28;20121;-58
2022/01/13 08:29:53;;;;;;;41.42;19.13;;;5.50;99.90;;;;;;4988170;28;20130;-56
2022/01/13 08:32:19;;;;;;;37.67;18.55;;;5.40;99.90;;;;;;4991169;28;20061;-58
2022/01/13 08:34:45;;;;;;;42.30;19.42;;;5.40;99.90;;;;;;4990670;28;20271;-56
2022/01/13 08:37:11;;;;;;;49.80;21.70;;;5.40;99.90;;;;;;4991723;28;20336;-59
2022/01/13 08:39:43;;;;;;;36.47;18.88;;;5.40;99.90;;;;;;4990908;28;20023;-55
2022/01/13 08:42:09;;;;;;;40.05;19.50;;;5.40;99.90;;;;;;4991400;28;20515;-56
2022/01/13 08:44:35;;;;;;;42.35;20.17;;;5.40;99.90;;;;;;4990977;28;20114;-53
2022/01/13 08:47:01;;;;;;;41.03;19.85;;;5.40;99.90;;;;;;4991325;28;20162;-55
2022/01/13 08:49:27;;;;;;;43.70;20.42;;;5.40;99.90;;;;;;4990937;28;20030;-57
2022/01/13 08:51:54;;;;;;;38.28;20.38;;;5.40;99.90;;;;;;4990891;28;20034;-55
2022/01/13 08:54:21;;;;;;;45.15;21.10;;;5.40;99.90;;;;;;4991462;28;20034;-54
2022/01/13 08:56:47;;;;;;;43.00;20.88;;;5.40;99.90;;;;;;4991345;28;20057;-54
2022/01/13 08:59:13;;;;;;;35.20;18.70;;;5.40;99.90;;;;;;4990833;28;20428;-57
2022/01/13 09:01:38;;;;;;;41.20;20.23;;;5.40;99.90;;;;;;4990999;28;20108;-54
2022/01/13 09:04:06;;;;;;;42.92;21.88;;;5.40;99.90;;;;;;4991242;28;20027;-56
2022/01/13 09:06:32;;;;;;;41.33;19.83;;;5.40;99.90;;;;;;4991105;28;20034;-53
2022/01/13 09:08:58;;;;;;;41.00;19.80;;;5.40;99.90;;;;;;4990881;28;20113;-56
2022/01/13 09:11:23;;;;;;;41.22;20.02;;;5.40;99.90;;;;;;4991026;28;20186;-57
2022/01/13 09:13:56;;;;;;;42.53;20.73;;;5.30;99.90;;;;;;4990598;28;20038;-57
2022/01/13 09:16:24;;;;;;;42.38;18.33;;;5.30;99.90;;;;;;4973242;28;20477;-57
2022/01/13 09:21:22;;;;;;;40.92;20.55;;;5.30;99.90;;;;;;4991671;28;20124;-54
2022/01/13 09:23:48;;;;;;;34.63;18.02;;;5.20;99.90;;;;;;4990141;28;20065;-55
2022/01/13 09:26:14;;;;;;;35.92;18.27;;;5.20;99.90;;;;;;4990565;28;20109;-55
2022/01/13 09:28:39;;;;;;;38.53;18.45;;;5.20;99.90;;;;;;4990033;28;20408;-58
2022/01/13 09:31:05;;;;;;;37.60;18.77;;;5.20;99.90;;;;;;4990523;28;20065;-57
2022/01/13 09:33:31;;;;;;;42.65;18.33;;;5.20;99.90;;;;;;4990595;28;20476;-58
2022/01/13 09:35:57;;;;;;;39.13;17.70;;;5.20;99.90;;;;;;4993288;28;20132;-57
2022/01/13 09:38:23;;;;;;;42.08;17.65;;;5.20;99.90;;;;;;4994185;28;20031;-58
2022/01/13 09:40:53;;;;;;;34.58;16.13;;;5.20;99.90;;;;;;4997139;28;20040;-56
2022/01/13 09:43:25;;;;;;;38.45;16.40;;;5.20;99.90;;;;;;4994853;28;20037;-58
2022/01/13 09:45:52;;;;;;;37.25;16.52;;;5.30;99.90;;;;;;4994686;28;20034;-57
2022/01/13 09:48:17;;;;;;;39.65;15.10;;;5.30;99.90;;;;;;4993791;28;20030;-57
2022/01/13 09:50:48;;;;;;;35.50;17.50;;;5.30;99.90;;;;;;4994613;28;20040;-57
2022/01/13 09:53:14;;;;;;;30.65;14.95;;;5.40;99.90;;;;;;4996482;28;20049;-59
2022/01/13 09:55:42;;;;;;;36.70;16.40;;;5.40;99.90;;;;;;4995672;28;20048;-59
2022/01/13 09:58:10;;;;;;;35.95;15.88;;;5.40;99.90;;;;;;4994466;28;20042;-57
2022/01/13 10:00:41;;;;;;;36.85;17.55;;;5.40;99.90;;;;;;4995585;28;20030;-60
2022/01/13 10:03:27;;;;;;;32.53;16.80;;;5.40;99.90;;;;;;4993989;28;20097;-58
2022/01/13 10:05:58;;;;;;;43.53;17.23;;;5.40;99.90;;;;;;4994059;28;20022;-57
2022/01/13 10:08:48;;;;;;;35.03;15.63;;;5.40;99.90;;;;;;4994543;28;20161;-60
2022/01/13 10:11:41;;;;;;;34.92;16.08;;;5.50;99.90;;;;;;4991987;28;20022;-58
2022/01/13 10:16:23;;;;;;;36.33;16.48;;;5.40;99.90;;;;;;4992990;28;20023;-55
2022/01/13 10:17:06;;;;;;;36.20;16.23;;;5.50;99.90;;;;;;4994800;28;20038;-58
2022/01/13 10:19:36;;;;;;;38.45;17.02;;;5.50;99.90;;;;;;4978250;28;20361;-57
2022/01/13 10:22:04;;;;;;;42.70;16.58;;;5.50;99.90;;;;;;4993550;28;20026;-58
2022/01/13 10:24:32;;;;;;;41.90;17.48;;;5.60;99.90;;;;;;4995639;28;20037;-56
2022/01/13 10:27:13;;;;;;;36.83;16.67;;;5.60;99.90;;;;;;4993852;28;20034;-58
2022/01/13 10:29:50;;;;;;;43.45;17.13;;;5.60;99.90;;;;;;5011694;23;20037;-54
2022/01/13 10:32:19;;;;;;;43.92;17.40;;;5.60;99.90;;;;;;5007987;28;20021;-53
2022/01/13 10:34:48;;;;;;;36.50;16.42;;;5.60;99.90;;;;;;5008545;28;20514;-54
2022/01/13 10:37:19;;;;;;;42.78;15.20;;;5.60;99.90;;;;;;5008867;28;20472;-49
2022/01/13 10:39:57;;;;;;;38.13;16.77;;;5.60;99.90;;;;;;4998655;28;20026;-50
2022/01/13 10:45:17;;;;;;;39.20;17.45;;;5.60;99.90;;;;;;4988059;28;20085;-54
2022/01/13 10:48:06;;;;;;;46.58;18.30;;;5.70;99.90;;;;;;4989597;28;20488;-51
2022/01/13 10:50:44;;;;;;;41.58;17.30;;;5.60;99.90;;;;;;4987215;28;20027;-51
2022/01/13 10:53:16;;;;;;;36.85;18.08;;;5.60;99.90;;;;;;4970392;28;20509;-52
2022/01/13 10:55:48;;;;;;;38.25;18.08;;;5.70;99.90;;;;;;4994706;28;20109;-50
2022/01/13 10:58:16;;;;;;;36.97;17.38;;;5.70;99.90;;;;;;5008805;28;20605;-51
2022/01/13 11:00:43;;;;;;;43.40;19.05;;;5.70;99.90;;;;;;4978496;28;20019;-51
2022/01/13 11:03:17;;;;;;;40.40;19.45;;;5.70;99.90;;;;;;4974715;28;20511;-51
2022/01/13 11:05:47;;;;;;;39.47;17.75;;;5.70;99.90;;;;;;4975582;28;20026;-50
2022/01/13 11:08:21;;;;;;;39.72;18.13;;;5.70;99.90;;;;;;4992566;28;20068;-53
2022/01/13 11:10:49;;;;;;;43.67;18.92;;;5.70;99.90;;;;;;4986507;28;20029;-51
2022/01/13 11:13:21;;;;;;;45.97;20.67;;;5.70;99.90;;;;;;5009529;28;20096;-49
2022/01/13 11:15:52;;;;;;;41.13;18.05;;;5.70;99.90;;;;;;4984037;28;20069;-51
2022/01/13 11:18:21;;;;;;;41.17;18.75;;;5.70;99.90;;;;;;4973290;28;20046;-50
2022/01/13 11:20:48;;;;;;;37.63;17.30;;;5.70;99.90;;;;;;4974500;28;20031;-51
2022/01/13 11:23:16;;;;;;;42.95;19.67;;;5.70;99.90;;;;;;4976572;28;20031;-52
2022/01/13 11:25:47;;;;;;;44.53;20.38;;;5.80;99.90;;;;;;4981842;28;20034;-50
2022/01/13 11:28:14;;;;;;;44.75;20.77;;;5.80;99.90;;;;;;4992302;28;20073;-51
2022/01/13 11:30:40;;;;;;;40.15;18.73;;;5.80;99.90;;;;;;4975320;28;20415;-49
2022/01/13 11:33:06;;;;;;;49.15;21.77;;;5.80;99.90;;;;;;4987899;28;20037;-50
2022/01/13 11:35:35;;;;;;;43.30;20.20;;;5.80;99.90;;;;;;4992347;28;20034;-51
2022/01/13 11:38:03;;;;;;;51.03;20.10;;;5.80;99.90;;;;;;4992313;28;20064;-50
2022/01/13 11:40:29;;;;;;;43.15;19.40;;;5.80;99.90;;;;;;4992731;28;20089;-52
2022/01/13 11:43:07;;;;;;;42.13;20.77;;;5.80;99.90;;;;;;4992665;28;20026;-51
2022/01/13 11:45:40;;;;;;;46.28;18.80;;;5.80;99.90;;;;;;4992605;28;20444;-51
2022/01/13 11:48:24;;;;;;;36.05;18.77;;;5.80;99.90;;;;;;4991984;28;20559;-50
2022/01/13 11:50:54;;;;;;;40.40;18.95;;;5.80;99.90;;;;;;4992342;28;20042;-52
2022/01/13 11:53:31;;;;;;;42.20;18.52;;;5.80;99.90;;;;;;4992313;28;20097;-50
2022/01/13 11:56:03;;;;;;;43.55;19.60;;;5.80;99.90;;;;;;4992287;28;20421;-52
2022/01/13 11:58:38;;;;;;;48.15;19.42;;;5.90;99.90;;;;;;4991929;28;20562;-50
2022/01/13 12:01:20;;;;;;;39.25;19.00;;;5.90;99.90;;;;;;4992259;28;20049;-52
2022/01/13 12:03:52;;;;;;;47.88;19.60;;;5.90;99.90;;;;;;4992309;28;20081;-48
2022/01/13 12:06:43;;;;;;;38.60;18.30;;;5.90;99.90;;;;;;4992253;28;20049;-51
2022/01/13 12:09:21;;;;;;;37.38;18.02;;;5.90;99.90;;;;;;4991212;28;20078;-50
2022/01/13 12:11:54;;;;;;;41.45;19.73;;;5.90;99.90;;;;;;4992370;28;20027;-51
2022/01/13 12:14:22;;;;;;;47.92;18.38;;;5.90;99.90;;;;;;4991954;28;20041;-51
2022/01/13 12:16:58;;;;;;;35.17;17.40;;;5.90;99.90;;;;;;4991945;28;20022;-50
2022/01/13 12:19:31;;;;;;;43.25;18.35;;;5.90;99.90;;;;;;4991546;28;20103;-51
2022/01/13 12:22:03;;;;;;;45.67;19.30;;;5.90;99.90;;;;;;4991829;28;20121;-52
2022/01/13 12:24:52;;;;;;;43.53;18.80;;;5.90;99.90;;;;;;4988687;28;20113;-52
2022/01/13 12:27:20;;;;;;;40.28;18.30;;;5.90;99.90;;;;;;4971851;28;20413;-50
2022/01/13 12:29:49;;;;;;;38.28;17.77;;;5.90;99.90;;;;;;4989862;28;20061;-51
2022/01/13 12:32:32;;;;;;;40.05;18.88;;;5.90;99.90;;;;;;4982700;28;20031;-49
2022/01/13 12:34:57;;;;;;;36.00;16.42;;;5.90;99.90;;;;;;4971254;28;20031;-51
2022/01/13 12:37:26;;;;;;;36.38;17.25;;;6.00;99.90;;;;;;4979707;28;20118;-50
2022/01/13 12:39:58;;;;;;;36.58;17.42;;;5.90;99.90;;;;;;4991451;28;20704;-51
2022/01/13 12:42:49;;;;;;;34.10;16.23;;;6.00;99.90;;;;;;4979262;28;20379;-50
2022/01/13 12:45:28;;;;;;;40.55;16.98;;;6.00;99.90;;;;;;4989074;28;20027;-52
2022/01/13 12:47:57;;;;;;;37.60;17.98;;;6.00;99.90;;;;;;4982842;28;20556;-51
2022/01/13 12:50:27;;;;;;;38.17;16.38;;;6.00;99.90;;;;;;4999128;28;20026;-52
2022/01/13 12:52:58;;;;;;;32.20;15.82;;;6.00;99.90;;;;;;4974621;28;20073;-51
2022/01/13 12:55:23;;;;;;;32.05;16.63;;;6.00;99.90;;;;;;4971634;28;20165;-50
2022/01/13 12:57:54;;;;;;;34.78;16.95;;;6.00;99.90;;;;;;4973653;28;20106;-53
2022/01/13 13:00:23;;;;;;;37.67;16.52;;;6.10;99.90;;;;;;4977222;28;20449;-51
2022/01/13 13:02:53;;;;;;;36.42;15.73;;;6.10;99.90;;;;;;4991446;28;20030;-51
2022/01/13 13:05:39;;;;;;;41.13;17.83;;;6.10;99.90;;;;;;4981830;28;20053;-50
2022/01/13 13:08:07;;;;;;;30.13;15.93;;;6.10;99.90;;;;;;4989388;28;20500;-51
2022/01/13 13:10:33;;;;;;;34.95;15.82;;;6.20;99.90;;;;;;4985428;28;20659;-51
2022/01/13 13:13:00;;;;;;;37.85;17.33;;;6.20;99.90;;;;;;4981695;28;20081;-50
2022/01/13 13:17:54;;;;;;;30.58;15.73;;;6.20;99.90;;;;;;4980994;28;20026;-54
2022/01/13 13:20:25;;;;;;;29.15;14.57;;;6.20;99.90;;;;;;4980553;28;20027;-54
2022/01/13 13:22:56;;;;;;;31.90;14.80;;;6.30;99.90;;;;;;4974754;28;20026;-54